createdAt,value
2023-12-24T00:00:07.189Z,0.30
2023-12-24T00:02:33.999Z,0.16
2023-12-24T00:05:00.987Z,0.08
2023-12-24T00:07:28.601Z,0.05
2023-12-24T00:09:55.372Z,0.07
2023-12-24T00:12:22.131Z,0.04
2023-12-24T00:14:48.898Z,0.02
2023-12-24T00:17:17.060Z,0.01
2023-12-24T00:19:43.961Z,0.09
2023-12-24T00:22:10.803Z,0.05
2023-12-24T00:24:37.554Z,0.03
2023-12-24T00:27:04.928Z,0.01
2023-12-24T00:29:31.835Z,0.01
2023-12-24T00:31:58.734Z,0.00
2023-12-24T00:34:26.939Z,0.64
2023-12-24T00:36:53.750Z,0.35
2023-12-24T00:39:20.838Z,0.23
2023-12-24T00:41:47.611Z,0.12
2023-12-24T00:44:14.518Z,0.07
2023-12-24T00:46:41.309Z,0.08
2023-12-24T00:49:08.246Z,0.58
2023-12-24T00:51:41.958Z,0.31
2023-12-24T00:54:08.763Z,0.16
2023-12-24T00:56:35.662Z,0.09
2023-12-24T00:59:02.509Z,0.62
2023-12-24T01:01:29.310Z,0.33
2023-12-24T01:03:56.096Z,0.17
2023-12-24T01:06:23.072Z,0.15
2023-12-24T01:08:51.344Z,0.23
2023-12-24T01:11:18.138Z,0.12
2023-12-24T01:13:44.958Z,0.09
2023-12-24T01:16:11.809Z,0.05
2023-12-24T01:18:38.754Z,0.03
2023-12-24T01:21:05.755Z,0.31
2023-12-24T01:23:32.710Z,0.17
2023-12-24T01:26:00.888Z,0.09
2023-12-24T01:28:27.703Z,0.05
2023-12-24T01:30:54.616Z,0.03
2023-12-24T01:33:21.625Z,0.01
2023-12-24T01:35:48.560Z,0.22
2023-12-24T01:38:15.632Z,0.12
2023-12-24T01:40:45.878Z,0.06
2023-12-24T01:43:14.415Z,0.03
2023-12-24T01:45:41.231Z,0.02
2023-12-24T01:48:08.340Z,0.01
2023-12-24T01:50:36.262Z,0.01
2023-12-24T01:53:03.429Z,0.21
2023-12-24T01:55:31.425Z,0.11
2023-12-24T01:57:58.484Z,0.06
2023-12-24T02:00:26.836Z,0.27
2023-12-24T02:02:54.785Z,5.19
2023-12-24T02:05:21.961Z,3.41
2023-12-24T02:07:50.117Z,2.07
2023-12-24T02:10:17.704Z,1.10
2023-12-24T02:12:45.638Z,0.75
2023-12-24T02:15:12.406Z,0.42
2023-12-24T02:17:41.269Z,0.32
2023-12-24T02:20:08.919Z,0.17
2023-12-24T02:22:37.130Z,0.09
2023-12-24T02:25:06.153Z,0.05
2023-12-24T02:27:38.279Z,0.03
2023-12-24T02:30:11.971Z,0.01
2023-12-24T02:32:40.564Z,0.01
2023-12-24T02:35:09.630Z,0.00
2023-12-24T02:37:38.104Z,0.05
2023-12-24T02:40:05.831Z,0.03
2023-12-24T02:42:32.799Z,0.01
2023-12-24T02:44:59.569Z,0.10
2023-12-24T02:47:26.485Z,0.07
2023-12-24T02:49:53.295Z,0.04
2023-12-24T02:52:20.402Z,0.02
2023-12-24T02:54:48.638Z,0.01
2023-12-24T02:57:15.477Z,0.04
2023-12-24T02:59:42.356Z,0.07
2023-12-24T03:02:09.231Z,0.08
2023-12-24T03:04:36.010Z,0.04
2023-12-24T03:07:02.848Z,0.02
2023-12-24T03:09:29.632Z,0.01
2023-12-24T03:11:57.873Z,0.03
2023-12-24T03:14:24.671Z,0.02
2023-12-24T03:16:51.479Z,0.01
2023-12-24T03:19:18.296Z,0.00
2023-12-24T03:21:45.286Z,0.02
2023-12-24T03:24:12.230Z,0.27
2023-12-24T03:26:39.112Z,0.14
2023-12-24T03:29:07.377Z,0.12
2023-12-24T03:31:34.304Z,0.06
2023-12-24T03:34:01.150Z,0.03
2023-12-24T03:36:28.030Z,0.05
2023-12-24T03:38:54.786Z,0.02
2023-12-24T03:41:21.736Z,0.11
2023-12-24T03:43:48.594Z,0.09
2023-12-24T03:46:19.578Z,0.05
2023-12-24T03:48:46.477Z,0.03
2023-12-24T03:51:13.711Z,0.01
2023-12-24T03:53:40.652Z,0.04
2023-12-24T03:56:10.331Z,0.08
2023-12-24T03:58:38.516Z,0.05
2023-12-24T04:01:07.863Z,0.03
2023-12-24T04:03:36.192Z,0.01
2023-12-24T04:06:09.776Z,0.01
2023-12-24T04:08:36.765Z,0.24
2023-12-24T04:11:03.851Z,0.16
2023-12-24T04:13:30.624Z,0.09
2023-12-24T04:15:57.578Z,0.05
2023-12-24T04:18:24.489Z,0.02
2023-12-24T04:20:52.740Z,0.01
2023-12-24T04:23:19.521Z,0.01
2023-12-24T04:25:46.346Z,0.00
2023-12-24T04:28:13.208Z,0.04
2023-12-24T04:30:40.162Z,0.07
2023-12-24T04:33:07.126Z,0.55
2023-12-24T04:35:34.181Z,0.65
2023-12-24T04:38:04.109Z,0.51
2023-12-24T04:40:30.948Z,0.28
2023-12-24T04:42:57.787Z,0.15
2023-12-24T04:45:24.649Z,0.08
2023-12-24T04:47:51.469Z,0.04
2023-12-24T04:50:18.367Z,0.02
2023-12-24T04:52:45.159Z,0.01
2023-12-24T04:55:13.434Z,0.06
2023-12-24T04:57:40.268Z,0.03
2023-12-24T05:00:08.305Z,0.20
2023-12-24T05:02:35.205Z,0.11
2023-12-24T05:05:03.784Z,0.06
2023-12-24T05:07:30.766Z,0.12
2023-12-24T05:09:57.635Z,0.25
2023-12-24T05:12:25.835Z,0.13
2023-12-24T05:14:52.642Z,0.07
2023-12-24T05:17:19.466Z,0.04
2023-12-24T05:19:46.270Z,0.03
2023-12-24T05:22:13.088Z,0.02
2023-12-24T05:24:39.958Z,0.38
2023-12-24T05:27:06.806Z,0.20
2023-12-24T05:29:34.957Z,0.11
2023-12-24T05:32:02.174Z,0.08
2023-12-24T05:34:29.007Z,0.05
2023-12-24T05:36:55.781Z,0.11
2023-12-24T05:39:22.639Z,0.10
2023-12-24T05:41:49.458Z,0.06
2023-12-24T05:44:16.360Z,0.03
2023-12-24T05:46:44.511Z,0.02
2023-12-24T05:49:11.638Z,0.01
2023-12-24T05:51:38.589Z,0.00
2023-12-24T05:54:05.466Z,0.01
2023-12-24T05:56:32.491Z,0.00
2023-12-24T05:58:59.357Z,0.00
2023-12-24T06:01:26.389Z,0.05
2023-12-24T06:03:54.586Z,0.12
2023-12-24T06:06:21.452Z,0.06
2023-12-24T06:08:48.360Z,0.03
2023-12-24T06:11:18.942Z,0.02
2023-12-24T06:13:45.904Z,0.01
2023-12-24T06:16:12.772Z,0.12
2023-12-24T06:18:39.838Z,0.18
2023-12-24T06:21:09.810Z,0.14
2023-12-24T06:23:36.887Z,0.12
2023-12-24T06:26:05.018Z,0.16
2023-12-24T06:28:31.959Z,0.08
2023-12-24T06:30:58.889Z,0.04
2023-12-24T06:33:25.803Z,0.02
2023-12-24T06:35:52.660Z,0.09
2023-12-24T06:38:21.540Z,0.69
2023-12-24T06:40:48.548Z,0.51
2023-12-24T06:43:15.313Z,1.21
2023-12-24T06:45:42.045Z,2.33
2023-12-24T06:48:08.998Z,1.34
2023-12-24T06:50:35.961Z,0.84
2023-12-24T06:53:02.928Z,0.57
2023-12-24T06:55:31.052Z,0.39
2023-12-24T06:57:57.790Z,0.21
2023-12-24T07:00:24.640Z,0.12
2023-12-24T07:02:51.658Z,0.10
2023-12-24T07:05:18.644Z,0.09
2023-12-24T07:07:45.422Z,0.15
2023-12-24T07:10:12.168Z,0.08
2023-12-24T07:12:40.503Z,0.08
2023-12-24T07:15:08.333Z,0.18
2023-12-24T07:20:02.222Z,0.07
2023-12-24T07:22:29.091Z,0.14
2023-12-24T07:24:55.925Z,0.20
2023-12-24T07:27:22.864Z,0.43
2023-12-24T07:29:51.086Z,0.31
2023-12-24T07:32:17.936Z,0.17
2023-12-24T07:34:44.814Z,0.09
2023-12-24T07:37:11.698Z,0.05
2023-12-24T07:39:38.462Z,0.11
2023-12-24T07:42:06.218Z,0.06
2023-12-24T07:44:33.027Z,0.34
2023-12-24T07:47:01.287Z,0.49
2023-12-24T07:49:28.067Z,0.33
2023-12-24T07:51:54.912Z,0.26
2023-12-24T07:54:21.797Z,0.83
2023-12-24T07:56:48.558Z,0.55
2023-12-24T07:59:15.405Z,0.39
2023-12-24T08:01:42.234Z,0.53
2023-12-24T08:04:10.373Z,0.53
2023-12-24T08:06:37.374Z,0.38
2023-12-24T08:09:04.572Z,0.58
2023-12-24T08:11:31.327Z,0.52
2023-12-24T08:13:58.224Z,0.32
2023-12-24T08:16:25.074Z,0.20
2023-12-24T08:18:52.091Z,0.11
2023-12-24T08:21:20.312Z,0.10
2023-12-24T08:23:47.115Z,0.11
2023-12-24T08:26:14.980Z,0.15
2023-12-24T08:28:42.248Z,0.15
2023-12-24T08:31:09.014Z,0.13
2023-12-24T08:33:35.885Z,0.13
2023-12-24T08:36:03.401Z,0.33
2023-12-24T08:38:31.740Z,0.28
2023-12-24T08:40:58.521Z,0.74
2023-12-24T08:43:25.355Z,1.80
2023-12-24T08:45:52.207Z,0.97
2023-12-24T08:48:19.403Z,0.56
2023-12-24T08:50:46.406Z,0.71
2023-12-24T08:53:13.458Z,0.65
2023-12-24T08:55:41.655Z,4.75
2023-12-24T08:58:08.397Z,3.08
2023-12-24T09:00:35.611Z,1.90
2023-12-24T09:03:02.802Z,1.64
2023-12-24T09:05:29.656Z,0.91
2023-12-24T09:07:56.635Z,0.58
2023-12-24T09:10:23.494Z,0.49
2023-12-24T09:12:51.879Z,1.37
2023-12-24T09:15:18.903Z,0.77
2023-12-24T09:17:45.858Z,0.61
2023-12-24T09:20:12.831Z,0.44
2023-12-24T09:22:39.689Z,0.52
2023-12-24T09:25:07.447Z,0.65
2023-12-24T09:27:34.237Z,0.91
2023-12-24T09:30:02.588Z,1.39
2023-12-24T09:32:29.491Z,1.47
2023-12-24T09:34:56.344Z,1.21
2023-12-24T09:37:23.273Z,1.48
2023-12-24T09:39:50.054Z,1.08
2023-12-24T09:42:17.625Z,0.85
2023-12-24T09:44:44.467Z,0.73
2023-12-24T09:47:12.663Z,1.00
2023-12-24T09:49:39.561Z,1.00
2023-12-24T09:52:07.020Z,1.04
2023-12-24T09:54:33.792Z,1.56
2023-12-24T09:57:00.592Z,1.45
2023-12-24T09:59:27.455Z,1.47
2023-12-24T10:01:54.297Z,0.83
2023-12-24T10:04:22.447Z,0.96
2023-12-24T10:06:53.671Z,0.56
2023-12-24T10:09:21.668Z,0.49
2023-12-24T10:12:03.159Z,0.63
2023-12-24T10:14:30.062Z,0.49
2023-12-24T10:16:56.833Z,0.43
2023-12-24T10:19:26.342Z,0.39
2023-12-24T10:22:00.689Z,0.40
2023-12-24T10:27:03.763Z,0.98
2023-12-24T10:29:30.594Z,0.68
2023-12-24T10:31:57.404Z,0.99
2023-12-24T10:34:26.084Z,0.69
2023-12-24T10:36:52.892Z,0.77
2023-12-24T10:39:26.373Z,1.22
2023-12-24T10:41:54.705Z,1.01
2023-12-24T10:44:21.584Z,0.78
2023-12-24T10:46:48.617Z,0.76
2023-12-24T10:49:15.695Z,0.96
2023-12-24T10:51:43.908Z,0.84
2023-12-24T10:54:11.317Z,0.80
2023-12-24T10:56:53.673Z,0.53
2023-12-24T10:59:31.235Z,1.22
2023-12-24T11:01:58.385Z,1.12
2023-12-24T11:04:43.924Z,1.24
2023-12-24T11:07:50.471Z,0.84
2023-12-24T11:10:39.992Z,0.59
2023-12-24T11:13:12.625Z,0.40
2023-12-24T11:15:41.186Z,1.09
2023-12-24T11:18:08.344Z,1.37
2023-12-24T11:20:42.923Z,0.87
2023-12-24T11:23:16.265Z,0.86
2023-12-24T11:25:44.929Z,0.59
2023-12-24T11:28:13.261Z,0.41
2023-12-24T11:31:13.808Z,0.66
2023-12-24T11:33:50.220Z,0.54
2023-12-24T11:36:18.722Z,0.38
2023-12-24T11:38:50.430Z,0.45
2023-12-24T11:41:19.904Z,0.82
2023-12-24T11:43:54.843Z,0.60
2023-12-24T11:46:22.227Z,0.67
2023-12-24T11:48:49.686Z,0.70
2023-12-24T11:51:16.938Z,0.56
2023-12-24T11:53:44.129Z,0.95
2023-12-24T11:56:13.878Z,1.42
2023-12-24T11:58:42.813Z,1.79
2023-12-24T12:01:10.584Z,1.04
2023-12-24T12:03:38.068Z,1.27
2023-12-24T12:06:05.730Z,0.91
2023-12-24T12:08:35.641Z,0.58
2023-12-24T12:11:02.808Z,1.14
2023-12-24T12:13:30.927Z,1.67
2023-12-24T12:15:57.682Z,1.57
2023-12-24T12:18:24.569Z,1.94
2023-12-24T12:20:51.503Z,2.01
2023-12-24T12:23:18.353Z,1.69
2023-12-24T12:25:45.273Z,1.25
2023-12-24T12:28:12.271Z,1.02
2023-12-24T12:30:40.544Z,0.65
2023-12-24T12:33:09.325Z,0.96
2023-12-24T12:35:36.631Z,0.64
2023-12-24T12:38:03.647Z,0.53
2023-12-24T12:40:36.228Z,0.35
2023-12-24T12:43:07.683Z,0.33
2023-12-24T12:45:34.530Z,0.32
2023-12-24T12:48:02.954Z,0.39
2023-12-24T12:50:29.855Z,0.40
2023-12-24T12:52:56.683Z,0.31
2023-12-24T12:55:23.522Z,0.68
2023-12-24T12:57:52.709Z,0.50
2023-12-24T13:00:21.488Z,0.42
2023-12-24T13:02:49.089Z,0.46
2023-12-24T13:05:27.758Z,0.34
2023-12-24T13:07:55.091Z,0.23
2023-12-24T13:10:31.541Z,0.17
2023-12-24T13:13:18.307Z,0.14
2023-12-24T13:15:46.133Z,0.08
2023-12-24T13:18:17.033Z,0.75
2023-12-24T13:20:47.129Z,0.63
2023-12-24T13:23:14.197Z,0.66
2023-12-24T13:25:41.980Z,0.64
2023-12-24T13:28:08.921Z,0.48
2023-12-24T13:30:35.726Z,1.29
2023-12-24T13:33:02.898Z,1.14
2023-12-24T13:35:34.482Z,1.21
2023-12-24T13:38:04.737Z,0.69
2023-12-24T13:40:31.952Z,0.69
2023-12-24T13:42:58.690Z,0.87
2023-12-24T13:45:25.647Z,0.63
2023-12-24T13:47:52.646Z,0.43
2023-12-24T13:50:19.574Z,0.49
2023-12-24T13:52:46.352Z,0.31
2023-12-24T13:55:14.459Z,0.44
2023-12-24T13:57:41.201Z,0.40
2023-12-24T14:00:09.214Z,0.21
2023-12-24T14:02:36.045Z,0.16
2023-12-24T14:05:03.260Z,0.13
2023-12-24T14:07:31.908Z,0.07
2023-12-24T14:09:59.128Z,0.42
2023-12-24T14:12:27.745Z,0.27
2023-12-24T14:14:54.607Z,5.28
2023-12-24T14:17:21.445Z,7.50
2023-12-24T14:19:48.258Z,8.63
2023-12-24T14:22:14.982Z,5.34
2023-12-24T14:24:41.806Z,2.98
2023-12-24T14:27:08.624Z,1.70
2023-12-24T14:29:39.092Z,1.05
2023-12-24T14:32:06.325Z,0.56
2023-12-24T14:34:33.320Z,0.45
2023-12-24T14:37:00.153Z,0.60
2023-12-24T14:39:27.380Z,0.83
2023-12-24T14:41:54.277Z,0.61
2023-12-24T14:44:21.525Z,1.24
2023-12-24T14:46:56.439Z,0.73
2023-12-24T14:49:23.409Z,0.53
2023-12-24T14:51:50.327Z,0.38
2023-12-24T14:54:17.113Z,0.32
2023-12-24T14:56:44.009Z,1.15
2023-12-24T14:59:11.425Z,0.71
2023-12-24T15:01:38.346Z,0.69
2023-12-24T15:04:06.479Z,0.68
2023-12-24T15:06:33.250Z,1.60
2023-12-24T15:09:00.102Z,1.55
2023-12-24T15:11:26.922Z,1.26
2023-12-24T15:13:53.717Z,0.73
2023-12-24T15:16:20.543Z,0.43
2023-12-24T15:18:47.396Z,2.56
2023-12-24T15:21:15.746Z,1.44
2023-12-24T15:23:42.547Z,0.92
2023-12-24T15:26:09.496Z,0.63
2023-12-24T15:28:36.303Z,0.34
2023-12-24T15:31:03.311Z,0.18
2023-12-24T15:33:30.260Z,1.00
2023-12-24T15:35:57.275Z,0.60
2023-12-24T15:38:25.528Z,0.68
2023-12-24T15:40:52.330Z,1.09
2023-12-24T15:43:19.107Z,5.02
2023-12-24T15:45:45.876Z,4.93
2023-12-24T15:48:12.865Z,3.19
2023-12-24T15:50:39.757Z,1.82
2023-12-24T15:53:06.584Z,0.97
2023-12-24T15:55:34.801Z,0.56
2023-12-24T15:58:01.620Z,0.78
2023-12-24T16:00:28.454Z,0.51
2023-12-24T16:02:55.489Z,0.59
2023-12-24T16:05:22.597Z,0.52
2023-12-24T16:07:49.390Z,0.71
2023-12-24T16:10:16.485Z,0.58
2023-12-24T16:12:44.652Z,0.52
2023-12-24T16:15:11.652Z,0.42
2023-12-24T16:17:38.491Z,0.52
2023-12-24T16:20:06.763Z,0.51
2023-12-24T16:22:33.565Z,0.79
2023-12-24T16:25:00.443Z,0.47
2023-12-24T16:27:27.302Z,0.30
2023-12-24T16:29:55.659Z,0.49
2023-12-24T16:32:22.593Z,0.31
2023-12-24T16:34:49.427Z,0.16
2023-12-24T16:37:16.370Z,0.17
2023-12-24T16:39:43.164Z,0.09
2023-12-24T16:42:10.005Z,0.29
2023-12-24T16:44:36.948Z,0.57
2023-12-24T16:47:05.419Z,0.44
2023-12-24T16:49:32.469Z,0.24
2023-12-24T16:51:59.442Z,0.13
2023-12-24T16:54:26.213Z,0.17
2023-12-24T16:56:53.060Z,0.30
2023-12-24T16:59:19.976Z,0.16
2023-12-24T17:01:47.044Z,0.08
2023-12-24T17:04:17.597Z,0.10
2023-12-24T17:06:44.474Z,0.06
2023-12-24T17:09:11.286Z,0.08
2023-12-24T17:11:38.149Z,0.14
2023-12-24T17:14:04.945Z,0.14
2023-12-24T17:16:31.936Z,0.13
2023-12-24T17:18:58.773Z,0.46
2023-12-24T17:21:27.697Z,0.29
2023-12-24T17:23:54.494Z,0.55
2023-12-24T17:26:21.713Z,0.34
2023-12-24T17:28:48.904Z,0.18
2023-12-24T17:31:15.986Z,0.33
2023-12-24T17:33:45.507Z,0.99
2023-12-24T17:36:16.697Z,0.53
2023-12-24T17:38:45.765Z,0.79
2023-12-24T17:41:18.009Z,0.47
2023-12-24T17:43:45.028Z,0.25
2023-12-24T17:46:12.024Z,0.13
2023-12-24T17:48:39.049Z,0.61
2023-12-24T17:51:05.980Z,0.32
2023-12-24T17:53:32.812Z,0.19
2023-12-24T17:56:01.016Z,0.15
2023-12-24T17:58:27.835Z,0.08
2023-12-24T18:00:54.727Z,0.04
2023-12-24T18:03:21.528Z,0.07
2023-12-24T18:05:48.702Z,0.04
2023-12-24T18:08:15.699Z,0.02
2023-12-24T18:10:42.556Z,0.01
2023-12-24T18:13:10.729Z,0.01
2023-12-24T18:15:37.506Z,0.01
2023-12-24T18:18:04.973Z,0.00
2023-12-24T18:20:32.046Z,0.10
2023-12-24T18:22:59.009Z,0.08
2023-12-24T18:25:26.083Z,0.04
2023-12-24T18:27:52.839Z,0.17
2023-12-24T18:30:21.063Z,0.09
2023-12-24T18:32:48.042Z,0.05
2023-12-24T18:35:15.493Z,0.95
2023-12-24T18:37:42.290Z,0.50
2023-12-24T18:40:09.751Z,0.31
2023-12-24T18:42:36.518Z,0.22
2023-12-24T18:45:03.610Z,0.66
2023-12-24T18:47:31.902Z,0.45
2023-12-24T18:49:58.826Z,0.34
2023-12-24T18:52:25.672Z,0.23
2023-12-24T18:54:52.397Z,0.55
2023-12-24T18:57:20.198Z,0.71
2023-12-24T18:59:48.165Z,1.65
2023-12-24T19:02:15.112Z,1.19
2023-12-24T19:04:43.305Z,0.88
2023-12-24T19:07:10.319Z,2.62
2023-12-24T19:09:37.065Z,2.44
2023-12-24T19:12:04.419Z,1.48
2023-12-24T19:14:31.314Z,0.83
2023-12-24T19:16:58.465Z,0.93
2023-12-24T19:19:25.462Z,0.51
2023-12-24T19:21:54.120Z,0.60
2023-12-24T19:24:21.095Z,0.45
2023-12-24T19:26:48.059Z,0.52
2023-12-24T19:29:15.657Z,0.27
2023-12-24T19:31:43.109Z,0.29
2023-12-24T19:34:09.971Z,0.20
2023-12-24T19:36:37.660Z,0.29
2023-12-24T19:39:06.235Z,0.28
2023-12-24T19:41:33.407Z,6.81
2023-12-24T19:44:00.640Z,4.04
2023-12-24T19:46:29.142Z,10.58
2023-12-24T19:48:56.171Z,6.91
2023-12-24T19:51:23.724Z,6.55
2023-12-24T19:53:52.984Z,3.61
2023-12-24T19:56:21.620Z,13.71
2023-12-24T19:58:49.273Z,7.47
2023-12-24T20:01:16.185Z,6.62
2023-12-24T20:03:43.474Z,4.20
2023-12-24T20:06:11.065Z,2.73
2023-12-24T20:08:38.016Z,2.41
2023-12-24T20:11:04.932Z,3.44
2023-12-24T20:13:33.404Z,2.29
2023-12-24T20:16:00.209Z,3.71
2023-12-24T20:18:27.256Z,14.98
2023-12-24T20:20:54.218Z,39.48
2023-12-24T20:23:21.180Z,37.94
2023-12-24T20:25:48.304Z,23.42
2023-12-24T20:28:15.134Z,16.31
2023-12-24T20:30:43.508Z,10.08
2023-12-24T20:33:10.549Z,6.30
2023-12-24T20:35:37.576Z,22.98
2023-12-24T20:38:04.989Z,37.76
2023-12-24T20:40:34.698Z,26.71
2023-12-24T20:43:01.720Z,16.11
2023-12-24T20:45:28.915Z,9.02
2023-12-24T20:48:09.468Z,5.11
2023-12-24T20:50:37.527Z,2.90
2023-12-24T20:53:04.521Z,2.00
2023-12-24T20:55:31.298Z,1.08
2023-12-24T20:57:58.220Z,0.67
2023-12-24T21:00:25.081Z,0.40
2023-12-24T21:02:52.364Z,0.26
2023-12-24T21:05:21.028Z,0.19
2023-12-24T21:07:48.032Z,0.19
2023-12-24T21:10:14.943Z,0.10
2023-12-24T21:12:41.815Z,0.10
2023-12-24T21:15:09.393Z,0.05
2023-12-24T21:17:36.388Z,0.03
2023-12-24T21:20:04.059Z,0.11
2023-12-24T21:22:32.288Z,0.29
2023-12-24T21:24:59.144Z,0.25
2023-12-24T21:27:25.929Z,0.27
2023-12-24T21:29:52.813Z,0.60
2023-12-24T21:32:19.640Z,0.36
2023-12-24T21:34:46.929Z,0.38
2023-12-24T21:37:13.688Z,0.34
2023-12-24T21:39:41.965Z,0.42
2023-12-24T21:42:08.764Z,0.33
2023-12-24T21:44:36.720Z,0.22
2023-12-24T21:47:04.525Z,0.33
2023-12-24T21:49:31.385Z,0.17
2023-12-24T21:51:58.226Z,0.09
2023-12-24T21:54:25.032Z,0.10
2023-12-24T21:56:53.436Z,0.05
2023-12-24T21:59:20.299Z,0.03
2023-12-24T22:01:47.138Z,0.01
2023-12-24T22:04:14.054Z,0.01
2023-12-24T22:06:41.953Z,0.06
2023-12-24T22:09:08.758Z,0.03
2023-12-24T22:11:35.829Z,0.02
2023-12-24T22:14:04.015Z,0.01
2023-12-24T22:16:30.840Z,0.01
2023-12-24T22:18:57.794Z,0.06
2023-12-24T22:21:24.763Z,0.22
2023-12-24T22:23:51.725Z,0.12
2023-12-24T22:26:19.969Z,0.06
2023-12-24T22:28:46.851Z,0.40
2023-12-24T22:31:22.491Z,0.21
2023-12-24T22:33:49.565Z,0.16
2023-12-24T22:36:16.405Z,0.51
2023-12-24T22:38:43.184Z,0.43
2023-12-24T22:41:10.020Z,0.23
2023-12-24T22:43:36.877Z,0.29
2023-12-24T22:46:04.044Z,1.03
2023-12-24T22:48:32.327Z,0.59
2023-12-24T22:50:59.414Z,0.31
2023-12-24T22:53:26.458Z,0.17
2023-12-24T22:55:53.345Z,0.34
2023-12-24T22:58:20.095Z,0.19
2023-12-24T23:00:47.072Z,0.68
2023-12-24T23:03:13.945Z,0.40
2023-12-24T23:05:42.555Z,0.21
2023-12-24T23:08:09.516Z,0.11
2023-12-24T23:10:36.276Z,0.06
2023-12-24T23:13:03.311Z,0.04
2023-12-24T23:15:30.269Z,0.02
2023-12-24T23:17:59.372Z,0.04
2023-12-24T23:20:26.576Z,0.02
2023-12-24T23:22:55.322Z,0.14
2023-12-24T23:25:22.142Z,0.09
2023-12-24T23:27:48.951Z,0.09
2023-12-24T23:30:15.832Z,0.10
2023-12-24T23:32:42.764Z,0.07
2023-12-24T23:35:09.757Z,0.44
2023-12-24T23:37:36.670Z,0.28
2023-12-24T23:40:06.155Z,0.34
2023-12-24T23:42:33.439Z,0.23
2023-12-24T23:45:00.692Z,0.18
2023-12-24T23:47:27.623Z,0.10
2023-12-24T23:49:54.550Z,0.05
2023-12-24T23:52:21.355Z,0.03
2023-12-24T23:54:48.200Z,0.05
2023-12-24T23:57:16.433Z,0.27
2023-12-24T23:59:43.284Z,0.30
